Terminal Aerodrome Forecast
Issued by NWS

Home | Current Version | Previous Version | Text Only | Print | Product List | Glossary On
Versions: 1 2 3 4 5 6 7 8 9 10 11 12 13 14 15 16 17 18
000
FTUS43 KDTX 291939 AAB
TAFYIP
TAF AMD
KYIP 291939Z 2920/3018 21013G21KT P6SM VCTS SCT045CB BKN050
      TEMPO 2920/2921 23017G27KT 4SM -TSRA BKN045CB
     FM292200 27007KT P6SM SCT200
     FM301500 29010KT P6SM SCT050=

USA.gov is the U.S. government's official web portal to all federal, state and local government web resources and services.